<?xml version="1.0" encoding="UTF-8" standalone="no" ?>
<gpx xmlns="http://www.topografix.com/GPX/1/1" xmlns:xsi="http://www.w3.org/2001/XMLSchema-instance" xsi:schemaLocation="http://www.topografix.com/GPX/1/1 http://www.topografix.com/GPX/1/1/gpx.xsd" version="1.1" creator="VisuGPX - https://www.visugpx.com">
  <metadata>
    <name>trace</name>
  </metadata>
  <trk>
    <name><![CDATA[Le Moutichic- Cousseau]]></name>
    <extensions>
      <line xmlns="http://www.topografix.com/GPX/gpx_style/0/2">
        <color>0000FF</color>
        <width>4</width>
      </line>
    </extensions>
    <trkseg>
      <trkpt lat="45.00262" lon="-1.13421">
        <ele>16.48</ele>
        <time>2025-10-30T08:46:22Z</time>
      </trkpt>
      <trkpt lat="45.00321" lon="-1.13504">
        <ele>21.29</ele>
        <time>2025-10-30T08:50:28Z</time>
      </trkpt>
      <trkpt lat="45.00327" lon="-1.13639">
        <ele>24.17</ele>
        <time>2025-10-30T08:52:06Z</time>
      </trkpt>
      <trkpt lat="45.00394" lon="-1.1375">
        <ele>25.61</ele>
        <time>2025-10-30T08:53:49Z</time>
      </trkpt>
      <trkpt lat="45.00525" lon="-1.13697">
        <ele>18.4</ele>
        <time>2025-10-30T08:57:25Z</time>
      </trkpt>
      <trkpt lat="45.00509" lon="-1.13702">
        <ele>18.88</ele>
        <time>2025-10-30T09:00:05Z</time>
      </trkpt>
      <trkpt lat="45.00423" lon="-1.13772">
        <ele>23.69</ele>
        <time>2025-10-30T09:01:54Z</time>
      </trkpt>
      <trkpt lat="45.00517" lon="-1.13827">
        <ele>24.65</ele>
        <time>2025-10-30T09:03:46Z</time>
      </trkpt>
      <trkpt lat="45.00635" lon="-1.13772">
        <ele>24.65</ele>
        <time>2025-10-30T09:06:43Z</time>
      </trkpt>
      <trkpt lat="45.00739" lon="-1.1375">
        <ele>22.73</ele>
        <time>2025-10-30T09:08:26Z</time>
      </trkpt>
      <trkpt lat="45.00812" lon="-1.13867">
        <ele>19.84</ele>
        <time>2025-10-30T09:12:08Z</time>
      </trkpt>
      <trkpt lat="45.00909" lon="-1.14029">
        <ele>20.32</ele>
        <time>2025-10-30T09:14:30Z</time>
      </trkpt>
      <trkpt lat="45.01016" lon="-1.14226">
        <ele>18.4</ele>
        <time>2025-10-30T09:17:44Z</time>
      </trkpt>
      <trkpt lat="45.01079" lon="-1.14325">
        <ele>18.4</ele>
        <time>2025-10-30T09:21:04Z</time>
      </trkpt>
      <trkpt lat="45.01139" lon="-1.14416">
        <ele>20.32</ele>
        <time>2025-10-30T09:22:28Z</time>
      </trkpt>
      <trkpt lat="45.01208" lon="-1.14515">
        <ele>20.32</ele>
        <time>2025-10-30T09:23:50Z</time>
      </trkpt>
      <trkpt lat="45.01285" lon="-1.14613">
        <ele>20.32</ele>
        <time>2025-10-30T09:25:18Z</time>
      </trkpt>
      <trkpt lat="45.01372" lon="-1.14725">
        <ele>25.61</ele>
        <time>2025-10-30T09:27:03Z</time>
      </trkpt>
      <trkpt lat="45.01472" lon="-1.14806">
        <ele>36.19</ele>
        <time>2025-10-30T09:31:32Z</time>
      </trkpt>
      <trkpt lat="45.01568" lon="-1.14929">
        <ele>37.63</ele>
        <time>2025-10-30T09:33:24Z</time>
      </trkpt>
      <trkpt lat="45.01613" lon="-1.15085">
        <ele>40.51</ele>
        <time>2025-10-30T09:35:11Z</time>
      </trkpt>
      <trkpt lat="45.01691" lon="-1.15125">
        <ele>38.59</ele>
        <time>2025-10-30T09:37:31Z</time>
      </trkpt>
      <trkpt lat="45.01779" lon="-1.15125">
        <ele>35.71</ele>
        <time>2025-10-30T09:38:59Z</time>
      </trkpt>
      <trkpt lat="45.01835" lon="-1.15154">
        <ele>41.95</ele>
        <time>2025-10-30T09:40:38Z</time>
      </trkpt>
      <trkpt lat="45.01862" lon="-1.15269">
        <ele>44.36</ele>
        <time>2025-10-30T09:42:05Z</time>
      </trkpt>
      <trkpt lat="45.01923" lon="-1.15354">
        <ele>40.51</ele>
        <time>2025-10-30T09:45:40Z</time>
      </trkpt>
      <trkpt lat="45.02015" lon="-1.15255">
        <ele>37.63</ele>
        <time>2025-10-30T09:52:08Z</time>
      </trkpt>
      <trkpt lat="45.02063" lon="-1.15111">
        <ele>33.3</ele>
        <time>2025-10-30T09:53:42Z</time>
      </trkpt>
      <trkpt lat="45.02151" lon="-1.15107">
        <ele>33.3</ele>
        <time>2025-10-30T10:00:43Z</time>
      </trkpt>
      <trkpt lat="45.02279" lon="-1.15123">
        <ele>28.98</ele>
        <time>2025-10-30T10:02:32Z</time>
      </trkpt>
      <trkpt lat="45.02404" lon="-1.15159">
        <ele>21.29</ele>
        <time>2025-10-30T10:04:17Z</time>
      </trkpt>
      <trkpt lat="45.02546" lon="-1.15168">
        <ele>20.81</ele>
        <time>2025-10-30T10:06:28Z</time>
      </trkpt>
      <trkpt lat="45.02719" lon="-1.15163">
        <ele>30.9</ele>
        <time>2025-10-30T10:09:12Z</time>
      </trkpt>
      <trkpt lat="45.02791" lon="-1.15269">
        <ele>39.55</ele>
        <time>2025-10-30T10:12:13Z</time>
      </trkpt>
      <trkpt lat="45.02898" lon="-1.15351">
        <ele>34.74</ele>
        <time>2025-10-30T10:15:31Z</time>
      </trkpt>
      <trkpt lat="45.03017" lon="-1.15448">
        <ele>33.78</ele>
        <time>2025-10-30T10:20:34Z</time>
      </trkpt>
      <trkpt lat="45.03007" lon="-1.15309">
        <ele>42.44</ele>
        <time>2025-10-30T10:25:56Z</time>
      </trkpt>
      <trkpt lat="45.03007" lon="-1.15136">
        <ele>44.84</ele>
        <time>2025-10-30T10:27:47Z</time>
      </trkpt>
      <trkpt lat="45.03053" lon="-1.15021">
        <ele>34.74</ele>
        <time>2025-10-30T10:29:10Z</time>
      </trkpt>
      <trkpt lat="45.03109" lon="-1.14878">
        <ele>35.71</ele>
        <time>2025-10-30T10:30:49Z</time>
      </trkpt>
      <trkpt lat="45.03172" lon="-1.14741">
        <ele>38.11</ele>
        <time>2025-10-30T10:32:57Z</time>
      </trkpt>
      <trkpt lat="45.03279" lon="-1.14578">
        <ele>32.34</ele>
        <time>2025-10-30T10:39:47Z</time>
      </trkpt>
      <trkpt lat="45.03247" lon="-1.14488">
        <ele>28.02</ele>
        <time>2025-10-30T10:42:29Z</time>
      </trkpt>
      <trkpt lat="45.03185" lon="-1.14284">
        <ele>32.34</ele>
        <time>2025-10-30T10:46:02Z</time>
      </trkpt>
      <trkpt lat="45.03127" lon="-1.14225">
        <ele>42.92</ele>
        <time>2025-10-30T10:55:53Z</time>
      </trkpt>
      <trkpt lat="45.03178" lon="-1.14212">
        <ele>19.36</ele>
        <time>2025-10-30T10:59:46Z</time>
      </trkpt>
      <trkpt lat="45.03234" lon="-1.14351">
        <ele>19.36</ele>
        <time>2025-10-30T11:01:40Z</time>
      </trkpt>
      <trkpt lat="45.03291" lon="-1.14497">
        <ele>17.44</ele>
        <time>2025-10-30T11:04:56Z</time>
      </trkpt>
      <trkpt lat="45.03361" lon="-1.14418">
        <ele>18.4</ele>
        <time>2025-10-30T11:07:30Z</time>
      </trkpt>
      <trkpt lat="45.03461" lon="-1.14444">
        <ele>18.88</ele>
        <time>2025-10-30T11:09:14Z</time>
      </trkpt>
      <trkpt lat="45.03563" lon="-1.14537">
        <ele>18.88</ele>
        <time>2025-10-30T11:11:17Z</time>
      </trkpt>
      <trkpt lat="45.03591" lon="-1.14623">
        <ele>22.25</ele>
        <time>2025-10-30T11:15:43Z</time>
      </trkpt>
      <trkpt lat="45.0363" lon="-1.14631">
        <ele>19.84</ele>
        <time>2025-10-30T11:18:50Z</time>
      </trkpt>
      <trkpt lat="45.03622" lon="-1.14611">
        <ele>27.05</ele>
        <time>2025-10-30T12:01:52Z</time>
      </trkpt>
      <trkpt lat="45.03568" lon="-1.14586">
        <ele>32.34</ele>
        <time>2025-10-30T12:10:23Z</time>
      </trkpt>
      <trkpt lat="45.03627" lon="-1.14628">
        <ele>23.69</ele>
        <time>2025-10-30T12:13:08Z</time>
      </trkpt>
      <trkpt lat="45.03638" lon="-1.1466">
        <ele>23.69</ele>
        <time>2025-10-30T12:20:25Z</time>
      </trkpt>
      <trkpt lat="45.03722" lon="-1.1479">
        <ele>22.73</ele>
        <time>2025-10-30T12:22:39Z</time>
      </trkpt>
      <trkpt lat="45.03696" lon="-1.1485">
        <ele>32.34</ele>
        <time>2025-10-30T12:25:01Z</time>
      </trkpt>
      <trkpt lat="45.03601" lon="-1.14953">
        <ele>35.71</ele>
        <time>2025-10-30T12:27:02Z</time>
      </trkpt>
      <trkpt lat="45.03596" lon="-1.15092">
        <ele>34.26</ele>
        <time>2025-10-30T12:28:37Z</time>
      </trkpt>
      <trkpt lat="45.03636" lon="-1.15231">
        <ele>26.09</ele>
        <time>2025-10-30T12:30:30Z</time>
      </trkpt>
      <trkpt lat="45.03642" lon="-1.15385">
        <ele>26.57</ele>
        <time>2025-10-30T12:32:06Z</time>
      </trkpt>
      <trkpt lat="45.03642" lon="-1.15517">
        <ele>25.61</ele>
        <time>2025-10-30T12:33:38Z</time>
      </trkpt>
      <trkpt lat="45.0353" lon="-1.15532">
        <ele>25.13</ele>
        <time>2025-10-30T12:36:15Z</time>
      </trkpt>
      <trkpt lat="45.03418" lon="-1.15584">
        <ele>24.65</ele>
        <time>2025-10-30T12:38:29Z</time>
      </trkpt>
      <trkpt lat="45.03312" lon="-1.15674">
        <ele>22.73</ele>
        <time>2025-10-30T12:42:07Z</time>
      </trkpt>
      <trkpt lat="45.03195" lon="-1.15657">
        <ele>22.73</ele>
        <time>2025-10-30T12:43:58Z</time>
      </trkpt>
      <trkpt lat="45.03087" lon="-1.15545">
        <ele>28.98</ele>
        <time>2025-10-30T12:45:43Z</time>
      </trkpt>
      <trkpt lat="45.03011" lon="-1.15469">
        <ele>33.3</ele>
        <time>2025-10-30T12:49:21Z</time>
      </trkpt>
      <trkpt lat="45.03005" lon="-1.15629">
        <ele>29.46</ele>
        <time>2025-10-30T12:51:38Z</time>
      </trkpt>
      <trkpt lat="45.02989" lon="-1.15809">
        <ele>34.26</ele>
        <time>2025-10-30T12:54:18Z</time>
      </trkpt>
      <trkpt lat="45.0292" lon="-1.15912">
        <ele>29.94</ele>
        <time>2025-10-30T12:56:10Z</time>
      </trkpt>
      <trkpt lat="45.02812" lon="-1.16017">
        <ele>22.25</ele>
        <time>2025-10-30T12:58:18Z</time>
      </trkpt>
      <trkpt lat="45.02719" lon="-1.1601">
        <ele>27.05</ele>
        <time>2025-10-30T12:59:46Z</time>
      </trkpt>
      <trkpt lat="45.02608" lon="-1.16002">
        <ele>24.17</ele>
        <time>2025-10-30T13:01:41Z</time>
      </trkpt>
      <trkpt lat="45.02486" lon="-1.16">
        <ele>24.17</ele>
        <time>2025-10-30T13:03:35Z</time>
      </trkpt>
      <trkpt lat="45.0238" lon="-1.15909">
        <ele>25.61</ele>
        <time>2025-10-30T13:05:29Z</time>
      </trkpt>
      <trkpt lat="45.02317" lon="-1.15795">
        <ele>31.86</ele>
        <time>2025-10-30T13:07:06Z</time>
      </trkpt>
      <trkpt lat="45.02228" lon="-1.157">
        <ele>34.74</ele>
        <time>2025-10-30T13:08:42Z</time>
      </trkpt>
      <trkpt lat="45.02141" lon="-1.15603">
        <ele>39.55</ele>
        <time>2025-10-30T13:10:35Z</time>
      </trkpt>
      <trkpt lat="45.02083" lon="-1.15543">
        <ele>33.78</ele>
        <time>2025-10-30T13:13:29Z</time>
      </trkpt>
      <trkpt lat="45.01988" lon="-1.15668">
        <ele>27.05</ele>
        <time>2025-10-30T13:15:31Z</time>
      </trkpt>
      <trkpt lat="45.01834" lon="-1.15641">
        <ele>27.05</ele>
        <time>2025-10-30T13:17:38Z</time>
      </trkpt>
      <trkpt lat="45.0178" lon="-1.15471">
        <ele>31.38</ele>
        <time>2025-10-30T13:19:38Z</time>
      </trkpt>
      <trkpt lat="45.01722" lon="-1.15338">
        <ele>38.59</ele>
        <time>2025-10-30T13:21:16Z</time>
      </trkpt>
      <trkpt lat="45.01676" lon="-1.15232">
        <ele>44.36</ele>
        <time>2025-10-30T13:22:47Z</time>
      </trkpt>
      <trkpt lat="45.01633" lon="-1.15132">
        <ele>47.72</ele>
        <time>2025-10-30T13:24:50Z</time>
      </trkpt>
      <trkpt lat="45.01583" lon="-1.15017">
        <ele>49.65</ele>
        <time>2025-10-30T13:29:48Z</time>
      </trkpt>
      <trkpt lat="45.01502" lon="-1.14881">
        <ele>44.36</ele>
        <time>2025-10-30T13:31:39Z</time>
      </trkpt>
      <trkpt lat="45.01421" lon="-1.14757">
        <ele>37.15</ele>
        <time>2025-10-30T13:34:20Z</time>
      </trkpt>
      <trkpt lat="45.01326" lon="-1.14684">
        <ele>28.02</ele>
        <time>2025-10-30T13:36:20Z</time>
      </trkpt>
      <trkpt lat="45.01252" lon="-1.14605">
        <ele>26.09</ele>
        <time>2025-10-30T13:37:43Z</time>
      </trkpt>
      <trkpt lat="45.01182" lon="-1.14509">
        <ele>26.57</ele>
        <time>2025-10-30T13:39:15Z</time>
      </trkpt>
      <trkpt lat="45.01116" lon="-1.14419">
        <ele>26.09</ele>
        <time>2025-10-30T13:40:55Z</time>
      </trkpt>
      <trkpt lat="45.0106" lon="-1.14313">
        <ele>26.57</ele>
        <time>2025-10-30T13:42:21Z</time>
      </trkpt>
      <trkpt lat="45.01009" lon="-1.14206">
        <ele>26.57</ele>
        <time>2025-10-30T13:45:19Z</time>
      </trkpt>
      <trkpt lat="45.00912" lon="-1.1404">
        <ele>25.61</ele>
        <time>2025-10-30T13:49:49Z</time>
      </trkpt>
      <trkpt lat="45.0084" lon="-1.13909">
        <ele>24.17</ele>
        <time>2025-10-30T13:51:39Z</time>
      </trkpt>
      <trkpt lat="45.00776" lon="-1.13795">
        <ele>26.57</ele>
        <time>2025-10-30T13:54:01Z</time>
      </trkpt>
      <trkpt lat="45.00711" lon="-1.13817">
        <ele>27.53</ele>
        <time>2025-10-30T13:55:36Z</time>
      </trkpt>
      <trkpt lat="45.00658" lon="-1.13942">
        <ele>28.02</ele>
        <time>2025-10-30T13:57:10Z</time>
      </trkpt>
      <trkpt lat="45.0064" lon="-1.14072">
        <ele>29.94</ele>
        <time>2025-10-30T13:59:00Z</time>
      </trkpt>
      <trkpt lat="45.00581" lon="-1.13949">
        <ele>29.94</ele>
        <time>2025-10-30T14:05:08Z</time>
      </trkpt>
      <trkpt lat="45.005" lon="-1.13862">
        <ele>28.98</ele>
        <time>2025-10-30T14:06:31Z</time>
      </trkpt>
      <trkpt lat="45.00421" lon="-1.13762">
        <ele>28.5</ele>
        <time>2025-10-30T14:08:03Z</time>
      </trkpt>
      <trkpt lat="45.00341" lon="-1.13661">
        <ele>28.98</ele>
        <time>2025-10-30T14:09:52Z</time>
      </trkpt>
      <trkpt lat="45.00316" lon="-1.13534">
        <ele>26.57</ele>
        <time>2025-10-30T14:11:16Z</time>
      </trkpt>
      <trkpt lat="45.00326" lon="-1.13472">
        <ele>26.09</ele>
        <time>2025-10-30T14:12:33Z</time>
      </trkpt>
      <trkpt lat="45.00273" lon="-1.13433">
        <ele>19.84</ele>
        <time>2025-10-30T14:13:56Z</time>
      </trkpt>
    </trkseg>
  </trk>
</gpx>